sensor_id;sensor_type;location;lat;lon;timestamp;temperature;humidity
21895;DHT22;11112;51.270;7.224;2023-07-29T00:00:57;19.80;99.90
21895;DHT22;11112;51.270;7.224;2023-07-29T00:03:26;19.80;99.90
21895;DHT22;11112;51.270;7.224;2023-07-29T00:05:58;19.80;99.90
21895;DHT22;11112;51.270;7.224;2023-07-29T00:08:25;19.70;99.90
21895;DHT22;11112;51.270;7.224;2023-07-29T00:10:53;19.80;99.90
21895;DHT22;11112;51.270;7.224;2023-07-29T00:13:21;19.80;99.90
21895;DHT22;11112;51.270;7.224;2023-07-29T00:15:48;19.70;99.90
21895;DHT22;11112;51.270;7.224;2023-07-29T00:18:16;19.70;99.90
21895;DHT22;11112;51.270;7.224;2023-07-29T00:20:45;19.80;99.90
21895;DHT22;11112;51.270;7.224;2023-07-29T00:23:14;19.70;99.90
21895;DHT22;11112;51.270;7.224;2023-07-29T00:25:42;19.70;99.90
21895;DHT22;11112;51.270;7.224;2023-07-29T00:28:11;19.70;99.90
21895;DHT22;11112;51.270;7.224;2023-07-29T00:30:39;19.70;99.90
21895;DHT22;11112;51.270;7.224;2023-07-29T00:33:06;19.70;99.90
21895;DHT22;11112;51.270;7.224;2023-07-29T00:35:34;19.70;99.90
21895;DHT22;11112;51.270;7.224;2023-07-29T00:38:03;19.70;99.90
21895;DHT22;11112;51.270;7.224;2023-07-29T00:40:35;19.70;99.90
21895;DHT22;11112;51.270;7.224;2023-07-29T00:43:03;19.70;99.90
21895;DHT22;11112;51.270;7.224;2023-07-29T00:45:32;19.70;99.90
21895;DHT22;11112;51.270;7.224;2023-07-29T00:48:01;19.70;99.90
21895;DHT22;11112;51.270;7.224;2023-07-29T00:50:31;19.70;99.90
21895;DHT22;11112;51.270;7.224;2023-07-29T00:53:00;19.70;99.90
21895;DHT22;11112;51.270;7.224;2023-07-29T00:55:28;19.70;99.90
21895;DHT22;11112;51.270;7.224;2023-07-29T00:58:03;19.70;99.90
21895;DHT22;11112;51.270;7.224;2023-07-29T01:00:30;19.70;99.90
21895;DHT22;11112;51.270;7.224;2023-07-29T01:02:58;19.70;99.90
21895;DHT22;11112;51.270;7.224;2023-07-29T01:05:30;19.70;99.90
21895;DHT22;11112;51.270;7.224;2023-07-29T01:08:03;19.70;99.90
21895;DHT22;11112;51.270;7.224;2023-07-29T01:10:40;19.70;99.90
21895;DHT22;11112;51.270;7.224;2023-07-29T01:13:21;19.70;99.90
21895;DHT22;11112;51.270;7.224;2023-07-29T01:15:55;19.70;99.90
21895;DHT22;11112;51.270;7.224;2023-07-29T01:18:28;19.70;99.90
21895;DHT22;11112;51.270;7.224;2023-07-29T01:20:59;19.70;99.90
21895;DHT22;11112;51.270;7.224;2023-07-29T01:23:34;19.70;99.90
21895;DHT22;11112;51.270;7.224;2023-07-29T01:26:03;19.70;99.90
21895;DHT22;11112;51.270;7.224;2023-07-29T01:28:33;19.70;99.90
21895;DHT22;11112;51.270;7.224;2023-07-29T01:31:06;19.70;99.90
21895;DHT22;11112;51.270;7.224;2023-07-29T01:33:42;19.70;99.90
21895;DHT22;11112;51.270;7.224;2023-07-29T01:36:20;19.70;99.90
21895;DHT22;11112;51.270;7.224;2023-07-29T01:38:52;19.70;99.90
21895;DHT22;11112;51.270;7.224;2023-07-29T01:41:20;19.70;99.90
21895;DHT22;11112;51.270;7.224;2023-07-29T01:43:48;19.70;99.90
21895;DHT22;11112;51.270;7.224;2023-07-29T01:46:16;19.70;99.90
21895;DHT22;11112;51.270;7.224;2023-07-29T01:48:43;19.70;99.90
21895;DHT22;11112;51.270;7.224;2023-07-29T01:51:12;19.70;99.90
21895;DHT22;11112;51.270;7.224;2023-07-29T01:53:41;19.70;99.90
21895;DHT22;11112;51.270;7.224;2023-07-29T01:56:10;19.70;99.90
21895;DHT22;11112;51.270;7.224;2023-07-29T01:58:38;19.70;99.90
21895;DHT22;11112;51.270;7.224;2023-07-29T02:01:05;19.70;99.90
21895;DHT22;11112;51.270;7.224;2023-07-29T02:03:33;19.70;99.90
21895;DHT22;11112;51.270;7.224;2023-07-29T02:06:01;19.70;99.90
21895;DHT22;11112;51.270;7.224;2023-07-29T02:08:31;19.60;99.90
21895;DHT22;11112;51.270;7.224;2023-07-29T02:11:01;19.70;99.90
21895;DHT22;11112;51.270;7.224;2023-07-29T02:13:32;19.70;99.90
21895;DHT22;11112;51.270;7.224;2023-07-29T02:15:59;19.60;99.90
21895;DHT22;11112;51.270;7.224;2023-07-29T02:18:30;19.60;99.90
21895;DHT22;11112;51.270;7.224;2023-07-29T02:20:57;19.70;99.90
21895;DHT22;11112;51.270;7.224;2023-07-29T02:23:26;19.70;99.90
21895;DHT22;11112;51.270;7.224;2023-07-29T02:25:54;19.70;99.90
21895;DHT22;11112;51.270;7.224;2023-07-29T02:28:22;19.70;99.90
21895;DHT22;11112;51.270;7.224;2023-07-29T02:31:09;19.70;99.90
21895;DHT22;11112;51.270;7.224;2023-07-29T02:33:44;19.70;99.90
21895;DHT22;11112;51.270;7.224;2023-07-29T02:36:15;19.60;99.90
21895;DHT22;11112;51.270;7.224;2023-07-29T02:38:45;19.70;99.90
21895;DHT22;11112;51.270;7.224;2023-07-29T02:41:14;19.60;99.90
21895;DHT22;11112;51.270;7.224;2023-07-29T02:43:43;19.70;99.90
21895;DHT22;11112;51.270;7.224;2023-07-29T02:46:12;19.70;99.90
21895;DHT22;11112;51.270;7.224;2023-07-29T02:48:41;19.70;99.90
21895;DHT22;11112;51.270;7.224;2023-07-29T02:51:11;19.70;99.90
21895;DHT22;11112;51.270;7.224;2023-07-29T02:53:39;19.60;99.90
21895;DHT22;11112;51.270;7.224;2023-07-29T02:56:07;19.70;99.90
21895;DHT22;11112;51.270;7.224;2023-07-29T02:58:37;19.70;99.90
21895;DHT22;11112;51.270;7.224;2023-07-29T03:01:06;19.70;99.90
21895;DHT22;11112;51.270;7.224;2023-07-29T03:03:36;19.70;99.90
21895;DHT22;11112;51.270;7.224;2023-07-29T03:06:05;19.60;99.90
21895;DHT22;11112;51.270;7.224;2023-07-29T03:08:36;19.60;99.90
21895;DHT22;11112;51.270;7.224;2023-07-29T03:11:08;19.60;99.90
21895;DHT22;11112;51.270;7.224;2023-07-29T03:13:36;19.60;99.90
21895;DHT22;11112;51.270;7.224;2023-07-29T03:16:08;19.60;99.90
21895;DHT22;11112;51.270;7.224;2023-07-29T03:18:38;19.60;99.90
21895;DHT22;11112;51.270;7.224;2023-07-29T03:21:06;19.60;99.90
21895;DHT22;11112;51.270;7.224;2023-07-29T03:23:34;19.60;99.90
21895;DHT22;11112;51.270;7.224;2023-07-29T03:26:02;19.60;99.90
21895;DHT22;11112;51.270;7.224;2023-07-29T03:28:36;19.60;99.90
21895;DHT22;11112;51.270;7.224;2023-07-29T03:31:05;19.60;99.90
21895;DHT22;11112;51.270;7.224;2023-07-29T03:33:32;19.60;99.90
21895;DHT22;11112;51.270;7.224;2023-07-29T03:36:02;19.70;99.90
21895;DHT22;11112;51.270;7.224;2023-07-29T03:38:30;19.70;99.90
21895;DHT22;11112;51.270;7.224;2023-07-29T03:41:00;19.70;99.90
21895;DHT22;11112;51.270;7.224;2023-07-29T03:43:29;19.70;99.90
21895;DHT22;11112;51.270;7.224;2023-07-29T03:45:56;19.70;99.90
21895;DHT22;11112;51.270;7.224;2023-07-29T03:48:23;19.70;99.90
21895;DHT22;11112;51.270;7.224;2023-07-29T03:50:53;19.70;99.90
21895;DHT22;11112;51.270;7.224;2023-07-29T03:53:24;19.70;99.90
21895;DHT22;11112;51.270;7.224;2023-07-29T03:55:51;19.70;99.90
21895;DHT22;11112;51.270;7.224;2023-07-29T03:58:21;19.70;99.90
21895;DHT22;11112;51.270;7.224;2023-07-29T04:00:58;19.60;99.90
21895;DHT22;11112;51.270;7.224;2023-07-29T04:03:27;19.60;99.90
21895;DHT22;11112;51.270;7.224;2023-07-29T04:05:56;19.60;99.90
21895;DHT22;11112;51.270;7.224;2023-07-29T04:08:25;19.70;99.90
21895;DHT22;11112;51.270;7.224;2023-07-29T04:10:54;19.70;99.90
21895;DHT22;11112;51.270;7.224;2023-07-29T04:13:22;19.70;99.90
21895;DHT22;11112;51.270;7.224;2023-07-29T04:15:49;19.70;99.90
21895;DHT22;11112;51.270;7.224;2023-07-29T04:18:17;19.70;99.90
21895;DHT22;11112;51.270;7.224;2023-07-29T04:20:44;19.70;99.90
21895;DHT22;11112;51.270;7.224;2023-07-29T04:23:13;19.70;99.90
21895;DHT22;11112;51.270;7.224;2023-07-29T04:25:41;19.70;99.90
21895;DHT22;11112;51.270;7.224;2023-07-29T04:28:09;19.70;99.90
21895;DHT22;11112;51.270;7.224;2023-07-29T04:30:36;19.70;99.90
21895;DHT22;11112;51.270;7.224;2023-07-29T04:33:05;19.70;99.90
21895;DHT22;11112;51.270;7.224;2023-07-29T04:35:33;19.70;99.90
21895;DHT22;11112;51.270;7.224;2023-07-29T04:38:00;19.70;99.90
21895;DHT22;11112;51.270;7.224;2023-07-29T04:40:28;19.70;99.90
21895;DHT22;11112;51.270;7.224;2023-07-29T04:43:00;19.70;99.90
21895;DHT22;11112;51.270;7.224;2023-07-29T04:45:29;19.70;99.90
21895;DHT22;11112;51.270;7.224;2023-07-29T04:47:57;19.70;99.90
21895;DHT22;11112;51.270;7.224;2023-07-29T04:50:26;19.70;99.90
21895;DHT22;11112;51.270;7.224;2023-07-29T04:52:54;19.70;99.90
21895;DHT22;11112;51.270;7.224;2023-07-29T04:55:22;19.70;99.90
21895;DHT22;11112;51.270;7.224;2023-07-29T04:57:50;19.70;99.90
21895;DHT22;11112;51.270;7.224;2023-07-29T05:00:21;19.70;99.90
21895;DHT22;11112;51.270;7.224;2023-07-29T05:02:49;19.70;99.90
21895;DHT22;11112;51.270;7.224;2023-07-29T05:05:17;19.60;99.90
21895;DHT22;11112;51.270;7.224;2023-07-29T05:07:45;19.70;99.90
21895;DHT22;11112;51.270;7.224;2023-07-29T05:10:13;19.60;99.90
21895;DHT22;11112;51.270;7.224;2023-07-29T05:12:40;19.60;99.90
21895;DHT22;11112;51.270;7.224;2023-07-29T05:15:10;19.60;99.90
21895;DHT22;11112;51.270;7.224;2023-07-29T05:17:48;19.60;99.90
21895;DHT22;11112;51.270;7.224;2023-07-29T05:20:18;19.60;99.90
21895;DHT22;11112;51.270;7.224;2023-07-29T05:22:46;19.60;99.90
21895;DHT22;11112;51.270;7.224;2023-07-29T05:25:14;19.60;99.90
21895;DHT22;11112;51.270;7.224;2023-07-29T05:27:42;19.60;99.90
21895;DHT22;11112;51.270;7.224;2023-07-29T05:30:09;19.60;99.90
21895;DHT22;11112;51.270;7.224;2023-07-29T05:32:37;19.60;99.90
21895;DHT22;11112;51.270;7.224;2023-07-29T05:35:07;19.60;99.90
21895;DHT22;11112;51.270;7.224;2023-07-29T05:37:37;19.60;99.90
21895;DHT22;11112;51.270;7.224;2023-07-29T05:40:06;19.60;99.90
21895;DHT22;11112;51.270;7.224;2023-07-29T05:42:34;19.60;99.90
21895;DHT22;11112;51.270;7.224;2023-07-29T05:45:02;19.60;99.90
21895;DHT22;11112;51.270;7.224;2023-07-29T05:47:32;19.70;99.90
21895;DHT22;11112;51.270;7.224;2023-07-29T05:50:01;19.70;99.90
21895;DHT22;11112;51.270;7.224;2023-07-29T05:52:32;19.70;99.90
21895;DHT22;11112;51.270;7.224;2023-07-29T05:55:01;19.60;99.90
21895;DHT22;11112;51.270;7.224;2023-07-29T05:57:28;19.70;99.90
21895;DHT22;11112;51.270;7.224;2023-07-29T05:59:56;19.60;99.90
21895;DHT22;11112;51.270;7.224;2023-07-29T06:02:23;19.70;99.90
21895;DHT22;11112;51.270;7.224;2023-07-29T06:04:51;19.60;99.90
21895;DHT22;11112;51.270;7.224;2023-07-29T06:07:19;19.60;99.90
21895;DHT22;11112;51.270;7.224;2023-07-29T06:09:48;19.60;99.90
21895;DHT22;11112;51.270;7.224;2023-07-29T06:12:15;19.60;99.90
21895;DHT22;11112;51.270;7.224;2023-07-29T06:14:43;19.60;99.90
21895;DHT22;11112;51.270;7.224;2023-07-29T06:17:10;19.60;99.90
21895;DHT22;11112;51.270;7.224;2023-07-29T06:19:37;19.60;99.90
21895;DHT22;11112;51.270;7.224;2023-07-29T06:22:05;19.60;99.90
21895;DHT22;11112;51.270;7.224;2023-07-29T06:24:35;19.60;99.90
21895;DHT22;11112;51.270;7.224;2023-07-29T06:27:05;19.60;99.90
21895;DHT22;11112;51.270;7.224;2023-07-29T06:29:32;19.60;99.90
21895;DHT22;11112;51.270;7.224;2023-07-29T06:32:01;19.60;99.90
21895;DHT22;11112;51.270;7.224;2023-07-29T06:34:29;19.60;99.90
21895;DHT22;11112;51.270;7.224;2023-07-29T06:36:57;19.60;99.90
21895;DHT22;11112;51.270;7.224;2023-07-29T06:39:24;19.60;99.90
21895;DHT22;11112;51.270;7.224;2023-07-29T06:41:52;19.60;99.90
21895;DHT22;11112;51.270;7.224;2023-07-29T06:44:21;19.50;99.90
21895;DHT22;11112;51.270;7.224;2023-07-29T06:46:49;19.50;99.90
21895;DHT22;11112;51.270;7.224;2023-07-29T06:49:16;19.50;99.90
21895;DHT22;11112;51.270;7.224;2023-07-29T06:51:43;19.50;99.90
21895;DHT22;11112;51.270;7.224;2023-07-29T06:54:10;19.50;99.90
21895;DHT22;11112;51.270;7.224;2023-07-29T06:56:39;19.50;99.90
21895;DHT22;11112;51.270;7.224;2023-07-29T06:59:06;19.50;99.90
21895;DHT22;11112;51.270;7.224;2023-07-29T07:01:35;19.50;99.90
21895;DHT22;11112;51.270;7.224;2023-07-29T07:04:02;19.50;99.90
21895;DHT22;11112;51.270;7.224;2023-07-29T07:06:30;19.50;99.90
21895;DHT22;11112;51.270;7.224;2023-07-29T07:08:57;19.60;99.90
21895;DHT22;11112;51.270;7.224;2023-07-29T07:11:25;19.60;99.90
21895;DHT22;11112;51.270;7.224;2023-07-29T07:13:52;19.60;99.90
21895;DHT22;11112;51.270;7.224;2023-07-29T07:16:19;19.70;99.90
21895;DHT22;11112;51.270;7.224;2023-07-29T07:18:48;19.80;99.90
21895;DHT22;11112;51.270;7.224;2023-07-29T07:21:16;19.80;99.90
21895;DHT22;11112;51.270;7.224;2023-07-29T07:23:43;19.90;99.90
21895;DHT22;11112;51.270;7.224;2023-07-29T07:26:10;19.90;99.90
21895;DHT22;11112;51.270;7.224;2023-07-29T07:28:39;20.20;99.90
21895;DHT22;11112;51.270;7.224;2023-07-29T07:31:06;20.20;99.90
21895;DHT22;11112;51.270;7.224;2023-07-29T07:33:33;20.20;99.90
21895;DHT22;11112;51.270;7.224;2023-07-29T07:36:03;20.30;99.90
21895;DHT22;11112;51.270;7.224;2023-07-29T07:38:30;20.30;99.90
21895;DHT22;11112;51.270;7.224;2023-07-29T07:40:58;20.20;99.90
21895;DHT22;11112;51.270;7.224;2023-07-29T07:43:28;20.20;99.90
21895;DHT22;11112;51.270;7.224;2023-07-29T07:45:59;20.00;99.90
21895;DHT22;11112;51.270;7.224;2023-07-29T07:48:29;20.10;99.90
21895;DHT22;11112;51.270;7.224;2023-07-29T07:50:58;20.10;99.90
21895;DHT22;11112;51.270;7.224;2023-07-29T07:53:27;20.10;99.90
21895;DHT22;11112;51.270;7.224;2023-07-29T07:55:55;20.10;99.90
21895;DHT22;11112;51.270;7.224;2023-07-29T07:58:22;20.20;99.90
21895;DHT22;11112;51.270;7.224;2023-07-29T08:00:50;20.20;99.90
21895;DHT22;11112;51.270;7.224;2023-07-29T08:03:18;20.30;99.90
21895;DHT22;11112;51.270;7.224;2023-07-29T08:05:45;20.40;99.90
21895;DHT22;11112;51.270;7.224;2023-07-29T08:08:13;20.40;99.90
21895;DHT22;11112;51.270;7.224;2023-07-29T08:10:42;20.40;99.90
21895;DHT22;11112;51.270;7.224;2023-07-29T08:13:09;20.40;99.90
21895;DHT22;11112;51.270;7.224;2023-07-29T08:15:38;20.40;99.90
21895;DHT22;11112;51.270;7.224;2023-07-29T08:18:07;20.40;99.90
21895;DHT22;11112;51.270;7.224;2023-07-29T08:20:36;20.40;99.90
21895;DHT22;11112;51.270;7.224;2023-07-29T08:23:04;20.40;99.90
21895;DHT22;11112;51.270;7.224;2023-07-29T08:25:31;20.50;99.90
21895;DHT22;11112;51.270;7.224;2023-07-29T08:28:00;20.40;99.90
21895;DHT22;11112;51.270;7.224;2023-07-29T08:30:28;20.40;99.90
21895;DHT22;11112;51.270;7.224;2023-07-29T08:32:56;20.40;99.90
21895;DHT22;11112;51.270;7.224;2023-07-29T08:35:23;20.40;99.90
21895;DHT22;11112;51.270;7.224;2023-07-29T08:37:50;20.40;99.90
21895;DHT22;11112;51.270;7.224;2023-07-29T08:40:23;20.40;99.90
21895;DHT22;11112;51.270;7.224;2023-07-29T08:42:55;20.50;99.90
21895;DHT22;11112;51.270;7.224;2023-07-29T08:45:27;20.50;99.90
21895;DHT22;11112;51.270;7.224;2023-07-29T08:47:57;20.60;99.90
21895;DHT22;11112;51.270;7.224;2023-07-29T08:50:26;20.60;99.90
21895;DHT22;11112;51.270;7.224;2023-07-29T08:52:54;20.70;99.90
21895;DHT22;11112;51.270;7.224;2023-07-29T08:55:23;20.70;99.90
21895;DHT22;11112;51.270;7.224;2023-07-29T08:57:50;20.70;99.90
21895;DHT22;11112;51.270;7.224;2023-07-29T09:00:19;20.70;99.90
21895;DHT22;11112;51.270;7.224;2023-07-29T09:02:47;20.70;99.90
21895;DHT22;11112;51.270;7.224;2023-07-29T09:05:16;20.80;99.90
21895;DHT22;11112;51.270;7.224;2023-07-29T09:07:44;20.80;99.90
21895;DHT22;11112;51.270;7.224;2023-07-29T09:10:14;20.80;99.90
21895;DHT22;11112;51.270;7.224;2023-07-29T09:12:42;20.80;99.90
21895;DHT22;11112;51.270;7.224;2023-07-29T09:15:09;20.80;99.90
21895;DHT22;11112;51.270;7.224;2023-07-29T09:17:40;20.90;99.90
21895;DHT22;11112;51.270;7.224;2023-07-29T09:20:10;20.90;99.90
21895;DHT22;11112;51.270;7.224;2023-07-29T09:22:37;20.90;99.90
21895;DHT22;11112;51.270;7.224;2023-07-29T09:25:05;20.90;99.90
21895;DHT22;11112;51.270;7.224;2023-07-29T09:27:34;20.90;99.90
21895;DHT22;11112;51.270;7.224;2023-07-29T09:30:06;20.90;99.90
21895;DHT22;11112;51.270;7.224;2023-07-29T09:32:34;20.90;99.90
21895;DHT22;11112;51.270;7.224;2023-07-29T09:35:03;20.80;99.90
21895;DHT22;11112;51.270;7.224;2023-07-29T09:37:38;20.90;99.90
21895;DHT22;11112;51.270;7.224;2023-07-29T09:40:06;20.90;99.90
21895;DHT22;11112;51.270;7.224;2023-07-29T09:42:47;20.90;99.90
21895;DHT22;11112;51.270;7.224;2023-07-29T09:45:26;20.80;99.90
21895;DHT22;11112;51.270;7.224;2023-07-29T09:47:54;20.90;99.90
21895;DHT22;11112;51.270;7.224;2023-07-29T09:50:25;20.90;99.90
21895;DHT22;11112;51.270;7.224;2023-07-29T09:52:54;20.90;99.90
21895;DHT22;11112;51.270;7.224;2023-07-29T09:55:26;20.90;99.90
21895;DHT22;11112;51.270;7.224;2023-07-29T09:57:55;20.90;99.90
21895;DHT22;11112;51.270;7.224;2023-07-29T10:00:23;20.90;99.90
21895;DHT22;11112;51.270;7.224;2023-07-29T10:02:51;20.90;99.90
21895;DHT22;11112;51.270;7.224;2023-07-29T10:05:19;21.00;99.90
21895;DHT22;11112;51.270;7.224;2023-07-29T10:07:50;20.90;99.90
21895;DHT22;11112;51.270;7.224;2023-07-29T10:10:18;20.90;99.90
21895;DHT22;11112;51.270;7.224;2023-07-29T10:12:54;20.90;99.90
21895;DHT22;11112;51.270;7.224;2023-07-29T10:15:27;20.90;99.90
21895;DHT22;11112;51.270;7.224;2023-07-29T10:17:55;20.80;99.90
21895;DHT22;11112;51.270;7.224;2023-07-29T10:20:23;20.80;99.90
21895;DHT22;11112;51.270;7.224;2023-07-29T10:22:54;20.80;99.90
21895;DHT22;11112;51.270;7.224;2023-07-29T10:25:24;20.80;99.90
21895;DHT22;11112;51.270;7.224;2023-07-29T10:27:55;20.80;99.90
21895;DHT22;11112;51.270;7.224;2023-07-29T10:30:24;20.80;99.90
21895;DHT22;11112;51.270;7.224;2023-07-29T10:32:53;20.80;99.90
21895;DHT22;11112;51.270;7.224;2023-07-29T10:35:22;20.80;99.90
21895;DHT22;11112;51.270;7.224;2023-07-29T10:37:54;20.80;99.90
21895;DHT22;11112;51.270;7.224;2023-07-29T10:40:22;20.80;99.90
21895;DHT22;11112;51.270;7.224;2023-07-29T10:43:09;20.80;99.90
21895;DHT22;11112;51.270;7.224;2023-07-29T10:45:39;20.90;99.90
21895;DHT22;11112;51.270;7.224;2023-07-29T10:48:09;20.90;99.90
21895;DHT22;11112;51.270;7.224;2023-07-29T10:50:38;21.00;99.90
21895;DHT22;11112;51.270;7.224;2023-07-29T10:56:48;21.10;99.90
21895;DHT22;11112;51.270;7.224;2023-07-29T10:59:34;21.10;99.90
21895;DHT22;11112;51.270;7.224;2023-07-29T11:02:01;21.10;99.90
21895;DHT22;11112;51.270;7.224;2023-07-29T11:04:30;21.10;99.90
21895;DHT22;11112;51.270;7.224;2023-07-29T11:07:21;21.20;99.90
21895;DHT22;11112;51.270;7.224;2023-07-29T11:10:03;21.20;99.90
21895;DHT22;11112;51.270;7.224;2023-07-29T11:12:35;21.20;99.90
21895;DHT22;11112;51.270;7.224;2023-07-29T11:15:04;21.20;99.90
21895;DHT22;11112;51.270;7.224;2023-07-29T11:17:40;21.30;99.90
21895;DHT22;11112;51.270;7.224;2023-07-29T11:20:09;21.30;99.90
21895;DHT22;11112;51.270;7.224;2023-07-29T11:22:38;21.30;99.90
21895;DHT22;11112;51.270;7.224;2023-07-29T11:25:08;21.40;99.90
21895;DHT22;11112;51.270;7.224;2023-07-29T11:27:37;21.40;99.90
21895;DHT22;11112;51.270;7.224;2023-07-29T11:30:07;21.40;99.90
21895;DHT22;11112;51.270;7.224;2023-07-29T11:32:37;21.40;99.90
21895;DHT22;11112;51.270;7.224;2023-07-29T11:35:08;21.50;99.90
21895;DHT22;11112;51.270;7.224;2023-07-29T11:37:38;21.40;99.90
21895;DHT22;11112;51.270;7.224;2023-07-29T11:40:08;21.50;99.90
21895;DHT22;11112;51.270;7.224;2023-07-29T11:42:37;21.50;99.90
21895;DHT22;11112;51.270;7.224;2023-07-29T11:45:06;21.60;99.90
21895;DHT22;11112;51.270;7.224;2023-07-29T11:47:35;21.50;99.90
21895;DHT22;11112;51.270;7.224;2023-07-29T11:50:04;21.60;99.90
21895;DHT22;11112;51.270;7.224;2023-07-29T11:52:36;21.60;99.90
21895;DHT22;11112;51.270;7.224;2023-07-29T11:55:07;21.60;99.90
21895;DHT22;11112;51.270;7.224;2023-07-29T11:57:36;21.50;99.90
21895;DHT22;11112;51.270;7.224;2023-07-29T12:00:07;21.50;99.90
21895;DHT22;11112;51.270;7.224;2023-07-29T12:02:37;21.50;99.90
21895;DHT22;11112;51.270;7.224;2023-07-29T12:05:07;21.50;99.90
21895;DHT22;11112;51.270;7.224;2023-07-29T12:07:38;21.50;99.90
21895;DHT22;11112;51.270;7.224;2023-07-29T12:10:09;21.50;99.90
21895;DHT22;11112;51.270;7.224;2023-07-29T12:12:42;21.50;99.90
21895;DHT22;11112;51.270;7.224;2023-07-29T12:15:12;21.50;99.90
21895;DHT22;11112;51.270;7.224;2023-07-29T12:17:40;21.50;99.90
21895;DHT22;11112;51.270;7.224;2023-07-29T12:20:09;21.50;99.90
21895;DHT22;11112;51.270;7.224;2023-07-29T12:22:40;21.60;99.90
21895;DHT22;11112;51.270;7.224;2023-07-29T12:25:10;21.60;99.90
21895;DHT22;11112;51.270;7.224;2023-07-29T12:27:37;21.70;99.90
21895;DHT22;11112;51.270;7.224;2023-07-29T12:30:06;21.70;99.90
21895;DHT22;11112;51.270;7.224;2023-07-29T12:32:43;21.70;99.90
21895;DHT22;11112;51.270;7.224;2023-07-29T12:35:12;21.70;99.90
21895;DHT22;11112;51.270;7.224;2023-07-29T12:37:40;21.70;99.90
21895;DHT22;11112;51.270;7.224;2023-07-29T12:40:23;21.70;99.90
21895;DHT22;11112;51.270;7.224;2023-07-29T12:42:52;21.70;99.90
21895;DHT22;11112;51.270;7.224;2023-07-29T12:45:20;21.70;99.90
21895;DHT22;11112;51.270;7.224;2023-07-29T12:47:50;21.70;99.90
21895;DHT22;11112;51.270;7.224;2023-07-29T12:50:25;21.70;99.90
21895;DHT22;11112;51.270;7.224;2023-07-29T12:52:53;21.70;99.90
21895;DHT22;11112;51.270;7.224;2023-07-29T12:55:30;21.80;99.90
21895;DHT22;11112;51.270;7.224;2023-07-29T12:58:00;21.80;99.90
21895;DHT22;11112;51.270;7.224;2023-07-29T13:00:30;21.80;99.90
21895;DHT22;11112;51.270;7.224;2023-07-29T13:03:04;21.80;99.90
21895;DHT22;11112;51.270;7.224;2023-07-29T13:05:33;21.80;99.90
21895;DHT22;11112;51.270;7.224;2023-07-29T13:08:10;21.80;99.90
21895;DHT22;11112;51.270;7.224;2023-07-29T13:10:47;21.80;99.90
21895;DHT22;11112;51.270;7.224;2023-07-29T13:13:17;21.80;99.90
21895;DHT22;11112;51.270;7.224;2023-07-29T13:15:48;21.80;99.90
21895;DHT22;11112;51.270;7.224;2023-07-29T13:18:19;21.80;99.90
21895;DHT22;11112;51.270;7.224;2023-07-29T13:20:59;21.80;99.90
21895;DHT22;11112;51.270;7.224;2023-07-29T13:23:32;21.80;99.90
21895;DHT22;11112;51.270;7.224;2023-07-29T13:26:06;21.80;99.90
21895;DHT22;11112;51.270;7.224;2023-07-29T13:28:41;21.80;99.90
21895;DHT22;11112;51.270;7.224;2023-07-29T13:31:15;21.80;99.90
21895;DHT22;11112;51.270;7.224;2023-07-29T13:33:51;21.80;99.90
21895;DHT22;11112;51.270;7.224;2023-07-29T13:36:22;21.80;99.90
21895;DHT22;11112;51.270;7.224;2023-07-29T13:39:01;21.80;99.90
21895;DHT22;11112;51.270;7.224;2023-07-29T13:41:40;21.90;99.90
21895;DHT22;11112;51.270;7.224;2023-07-29T13:44:08;21.80;99.90
21895;DHT22;11112;51.270;7.224;2023-07-29T13:46:37;21.80;99.90
21895;DHT22;11112;51.270;7.224;2023-07-29T13:49:06;21.80;99.90
21895;DHT22;11112;51.270;7.224;2023-07-29T13:51:34;21.80;99.90
21895;DHT22;11112;51.270;7.224;2023-07-29T13:54:02;21.80;99.90
21895;DHT22;11112;51.270;7.224;2023-07-29T13:56:30;21.80;99.90
21895;DHT22;11112;51.270;7.224;2023-07-29T13:58:59;21.80;99.90
21895;DHT22;11112;51.270;7.224;2023-07-29T14:01:27;21.80;99.90
21895;DHT22;11112;51.270;7.224;2023-07-29T14:03:56;21.80;99.90
21895;DHT22;11112;51.270;7.224;2023-07-29T14:06:23;21.80;99.90
21895;DHT22;11112;51.270;7.224;2023-07-29T14:08:51;21.80;99.90
21895;DHT22;11112;51.270;7.224;2023-07-29T14:11:19;21.80;99.90
21895;DHT22;11112;51.270;7.224;2023-07-29T14:13:47;21.70;99.90
21895;DHT22;11112;51.270;7.224;2023-07-29T14:16:17;21.70;99.90
21895;DHT22;11112;51.270;7.224;2023-07-29T14:18:45;21.70;99.90
21895;DHT22;11112;51.270;7.224;2023-07-29T14:21:13;21.70;99.90
21895;DHT22;11112;51.270;7.224;2023-07-29T14:23:40;21.70;99.90
21895;DHT22;11112;51.270;7.224;2023-07-29T14:26:08;21.70;99.90
21895;DHT22;11112;51.270;7.224;2023-07-29T14:28:36;21.70;99.90
21895;DHT22;11112;51.270;7.224;2023-07-29T14:31:04;21.70;99.90
21895;DHT22;11112;51.270;7.224;2023-07-29T14:33:34;21.70;99.90
21895;DHT22;11112;51.270;7.224;2023-07-29T14:36:02;21.70;99.90
21895;DHT22;11112;51.270;7.224;2023-07-29T14:38:30;21.70;99.90
21895;DHT22;11112;51.270;7.224;2023-07-29T14:40:58;21.70;99.90
21895;DHT22;11112;51.270;7.224;2023-07-29T14:43:26;21.70;99.90
21895;DHT22;11112;51.270;7.224;2023-07-29T14:45:54;21.70;99.90
21895;DHT22;11112;51.270;7.224;2023-07-29T14:48:22;21.70;99.90
21895;DHT22;11112;51.270;7.224;2023-07-29T14:50:52;21.60;99.90
21895;DHT22;11112;51.270;7.224;2023-07-29T14:53:20;21.60;99.90
21895;DHT22;11112;51.270;7.224;2023-07-29T14:55:48;21.60;99.90
21895;DHT22;11112;51.270;7.224;2023-07-29T14:58:16;21.60;99.90
21895;DHT22;11112;51.270;7.224;2023-07-29T15:00:45;21.60;99.90
21895;DHT22;11112;51.270;7.224;2023-07-29T15:03:13;21.60;99.90
21895;DHT22;11112;51.270;7.224;2023-07-29T15:05:41;21.60;99.90
21895;DHT22;11112;51.270;7.224;2023-07-29T15:08:10;21.60;99.90
21895;DHT22;11112;51.270;7.224;2023-07-29T15:10:38;21.60;99.90
21895;DHT22;11112;51.270;7.224;2023-07-29T15:13:06;21.60;99.90
21895;DHT22;11112;51.270;7.224;2023-07-29T15:15:34;21.60;99.90
21895;DHT22;11112;51.270;7.224;2023-07-29T15:18:02;21.60;99.90
21895;DHT22;11112;51.270;7.224;2023-07-29T15:20:30;21.50;99.90
21895;DHT22;11112;51.270;7.224;2023-07-29T15:22:58;21.50;99.90
21895;DHT22;11112;51.270;7.224;2023-07-29T15:25:28;21.50;99.90
21895;DHT22;11112;51.270;7.224;2023-07-29T15:27:56;21.50;99.90
21895;DHT22;11112;51.270;7.224;2023-07-29T15:30:23;21.60;99.90
21895;DHT22;11112;51.270;7.224;2023-07-29T15:32:51;21.60;99.90
21895;DHT22;11112;51.270;7.224;2023-07-29T15:35:18;21.60;99.90
21895;DHT22;11112;51.270;7.224;2023-07-29T15:37:48;21.60;99.90
21895;DHT22;11112;51.270;7.224;2023-07-29T15:40:15;21.70;99.90
21895;DHT22;11112;51.270;7.224;2023-07-29T15:42:43;21.70;99.90
21895;DHT22;11112;51.270;7.224;2023-07-29T15:45:11;21.70;99.90
21895;DHT22;11112;51.270;7.224;2023-07-29T15:47:38;21.70;99.90